sensor_id;sensor_type;location;lat;lon;timestamp;pressure;altitude;pressure_sealevel;temperature;humidity
77013;BME280;67260;53.130;17.982;2024-02-04T00:00:32;100711.02;;;5.70;79.54
77013;BME280;67260;53.130;17.982;2024-02-04T00:03:19;100709.89;;;5.71;79.30
77013;BME280;67260;53.130;17.982;2024-02-04T00:05:46;100718.67;;;5.74;79.24
77013;BME280;67260;53.130;17.982;2024-02-04T00:08:13;100724.98;;;5.77;79.34
77013;BME280;67260;53.130;17.982;2024-02-04T00:10:43;100721.63;;;5.81;79.29
77013;BME280;67260;53.130;17.982;2024-02-04T00:13:10;100720.34;;;5.84;79.65
77013;BME280;67260;53.130;17.982;2024-02-04T00:15:37;100715.70;;;5.83;80.06
77013;BME280;67260;53.130;17.982;2024-02-04T00:18:03;100722.64;;;5.81;79.98
77013;BME280;67260;53.130;17.982;2024-02-04T00:20:30;100713.45;;;5.75;80.17
77013;BME280;67260;53.130;17.982;2024-02-04T00:22:59;100700.55;;;5.70;80.28
77013;BME280;67260;53.130;17.982;2024-02-04T00:25:25;100694.15;;;5.65;79.85
77013;BME280;67260;53.130;17.982;2024-02-04T00:27:52;100688.05;;;5.61;79.85
77013;BME280;67260;53.130;17.982;2024-02-04T00:30:19;100699.23;;;5.56;79.78
77013;BME280;67260;53.130;17.982;2024-02-04T00:32:45;100703.79;;;5.52;79.69
77013;BME280;67260;53.130;17.982;2024-02-04T00:35:12;100708.83;;;5.51;79.88
77013;BME280;67260;53.130;17.982;2024-02-04T00:37:39;100712.86;;;5.50;79.88
77013;BME280;67260;53.130;17.982;2024-02-04T00:40:06;100706.77;;;5.49;79.58
77013;BME280;67260;53.130;17.982;2024-02-04T00:42:33;100704.77;;;5.48;79.39
77013;BME280;67260;53.130;17.982;2024-02-04T00:44:59;100704.96;;;5.48;79.27
77013;BME280;67260;53.130;17.982;2024-02-04T00:47:26;100716.39;;;5.48;79.40
77013;BME280;67260;53.130;17.982;2024-02-04T00:49:53;100713.29;;;5.49;79.57
77013;BME280;67260;53.130;17.982;2024-02-04T00:52:20;100709.14;;;5.48;79.84
77013;BME280;67260;53.130;17.982;2024-02-04T00:54:47;100708.36;;;5.48;79.73
77013;BME280;67260;53.130;17.982;2024-02-04T00:57:14;100702.14;;;5.47;80.06
77013;BME280;67260;53.130;17.982;2024-02-04T00:59:40;100699.21;;;5.46;80.09
77013;BME280;67260;53.130;17.982;2024-02-04T01:02:13;100701.43;;;5.44;80.10
77013;BME280;67260;53.130;17.982;2024-02-04T01:04:41;100698.84;;;5.42;80.34
77013;BME280;67260;53.130;17.982;2024-02-04T01:07:08;100697.67;;;5.40;80.49
77013;BME280;67260;53.130;17.982;2024-02-04T01:09:39;100697.64;;;5.38;80.42
77013;BME280;67260;53.130;17.982;2024-02-04T01:12:07;100702.58;;;5.38;80.32
77013;BME280;67260;53.130;17.982;2024-02-04T01:14:34;100704.69;;;5.38;80.33
77013;BME280;67260;53.130;17.982;2024-02-04T01:17:04;100697.45;;;5.39;80.23
77013;BME280;67260;53.130;17.982;2024-02-04T01:19:30;100691.45;;;5.41;80.20
77013;BME280;67260;53.130;17.982;2024-02-04T01:22:01;100686.45;;;5.43;80.12
77013;BME280;67260;53.130;17.982;2024-02-04T01:24:27;100680.16;;;5.44;79.89
77013;BME280;67260;53.130;17.982;2024-02-04T01:26:55;100687.10;;;5.45;79.84
77013;BME280;67260;53.130;17.982;2024-02-04T01:29:21;100694.11;;;5.46;79.82
77013;BME280;67260;53.130;17.982;2024-02-04T01:31:48;100695.19;;;5.48;79.93
77013;BME280;67260;53.130;17.982;2024-02-04T01:34:15;100700.85;;;5.47;79.65
77013;BME280;67260;53.130;17.982;2024-02-04T01:36:41;100704.14;;;5.47;79.57
77013;BME280;67260;53.130;17.982;2024-02-04T01:39:08;100700.61;;;5.45;79.47
77013;BME280;67260;53.130;17.982;2024-02-04T01:41:35;100693.21;;;5.42;79.38
77013;BME280;67260;53.130;17.982;2024-02-04T01:44:03;100696.67;;;5.41;79.11
77013;BME280;67260;53.130;17.982;2024-02-04T01:46:31;100694.82;;;5.42;78.81
77013;BME280;67260;53.130;17.982;2024-02-04T01:48:59;100694.16;;;5.43;78.70
77013;BME280;67260;53.130;17.982;2024-02-04T01:51:30;100679.39;;;5.44;78.79
77013;BME280;67260;53.130;17.982;2024-02-04T01:53:57;100670.58;;;5.43;78.68
77013;BME280;67260;53.130;17.982;2024-02-04T01:56:23;100670.67;;;5.39;78.50
77013;BME280;67260;53.130;17.982;2024-02-04T01:58:53;100672.90;;;5.35;78.46
77013;BME280;67260;53.130;17.982;2024-02-04T02:01:21;100672.00;;;5.31;78.26
77013;BME280;67260;53.130;17.982;2024-02-04T02:03:49;100664.84;;;5.27;78.42
77013;BME280;67260;53.130;17.982;2024-02-04T02:06:18;100661.99;;;5.24;78.21
77013;BME280;67260;53.130;17.982;2024-02-04T02:08:46;100669.85;;;5.22;77.72
77013;BME280;67260;53.130;17.982;2024-02-04T02:11:21;100677.25;;;5.20;77.42
77013;BME280;67260;53.130;17.982;2024-02-04T02:14:01;100680.68;;;5.19;77.49
77013;BME280;67260;53.130;17.982;2024-02-04T02:23:35;100677.62;;;5.08;77.64
77013;BME280;67260;53.130;17.982;2024-02-04T02:26:22;100683.55;;;5.00;77.83
77013;BME280;67260;53.130;17.982;2024-02-04T02:29:17;100688.38;;;4.91;77.86
77013;BME280;67260;53.130;17.982;2024-02-04T02:32:09;100682.48;;;4.85;78.09
77013;BME280;67260;53.130;17.982;2024-02-04T02:35:00;100687.22;;;4.75;78.47
77013;BME280;67260;53.130;17.982;2024-02-04T02:37:29;100683.98;;;4.70;78.48
77013;BME280;67260;53.130;17.982;2024-02-04T02:42:38;100664.20;;;4.55;78.68
77013;BME280;67260;53.130;17.982;2024-02-04T02:45:09;100666.86;;;4.50;78.69
77013;BME280;67260;53.130;17.982;2024-02-04T02:48:00;100663.79;;;4.44;78.56
77013;BME280;67260;53.130;17.982;2024-02-04T02:50:33;100672.42;;;4.38;78.68
77013;BME280;67260;53.130;17.982;2024-02-04T02:53:00;100684.52;;;4.33;78.84
77013;BME280;67260;53.130;17.982;2024-02-04T02:55:26;100694.27;;;4.27;78.89
77013;BME280;67260;53.130;17.982;2024-02-04T02:57:53;100698.34;;;4.22;79.21
77013;BME280;67260;53.130;17.982;2024-02-04T03:00:20;100701.41;;;4.18;79.21
77013;BME280;67260;53.130;17.982;2024-02-04T03:02:47;100703.39;;;4.16;79.35
77013;BME280;67260;53.130;17.982;2024-02-04T03:05:17;100706.83;;;4.15;79.42
77013;BME280;67260;53.130;17.982;2024-02-04T03:07:44;100711.60;;;4.16;79.43
77013;BME280;67260;53.130;17.982;2024-02-04T03:10:12;100712.77;;;4.20;79.28
77013;BME280;67260;53.130;17.982;2024-02-04T03:12:42;100709.02;;;4.23;79.18
77013;BME280;67260;53.130;17.982;2024-02-04T03:15:25;100710.99;;;4.28;78.78
77013;BME280;67260;53.130;17.982;2024-02-04T03:18:04;100711.73;;;4.34;78.73
77013;BME280;67260;53.130;17.982;2024-02-04T03:20:39;100710.29;;;4.39;78.56
77013;BME280;67260;53.130;17.982;2024-02-04T03:26:46;100711.36;;;4.50;78.19
77013;BME280;67260;53.130;17.982;2024-02-04T03:29:47;100709.27;;;4.55;78.17
77013;BME280;67260;53.130;17.982;2024-02-04T03:32:14;100713.90;;;4.59;77.88
77013;BME280;67260;53.130;17.982;2024-02-04T03:34:41;100714.23;;;4.63;77.57
77013;BME280;67260;53.130;17.982;2024-02-04T03:37:08;100709.71;;;4.65;77.50
77013;BME280;67260;53.130;17.982;2024-02-04T03:39:49;100713.63;;;4.68;77.17
77013;BME280;67260;53.130;17.982;2024-02-04T03:42:16;100715.19;;;4.71;77.31
77013;BME280;67260;53.130;17.982;2024-02-04T03:44:48;100717.52;;;4.73;77.43
77013;BME280;67260;53.130;17.982;2024-02-04T03:47:15;100719.60;;;4.74;77.19
77013;BME280;67260;53.130;17.982;2024-02-04T03:49:43;100720.61;;;4.75;77.15
77013;BME280;67260;53.130;17.982;2024-02-04T03:52:09;100723.23;;;4.75;77.08
77013;BME280;67260;53.130;17.982;2024-02-04T03:55:09;100724.92;;;4.75;76.97
77013;BME280;67260;53.130;17.982;2024-02-04T03:57:39;100728.63;;;4.77;77.08
77013;BME280;67260;53.130;17.982;2024-02-04T04:00:34;100726.23;;;4.76;76.95
77013;BME280;67260;53.130;17.982;2024-02-04T04:03:01;100711.65;;;4.78;76.89
77013;BME280;67260;53.130;17.982;2024-02-04T04:05:31;100706.35;;;4.78;76.81
77013;BME280;67260;53.130;17.982;2024-02-04T04:08:12;100692.74;;;4.76;76.62
77013;BME280;67260;53.130;17.982;2024-02-04T04:10:39;100698.08;;;4.74;76.69
77013;BME280;67260;53.130;17.982;2024-02-04T04:13:06;100698.35;;;4.71;76.43
77013;BME280;67260;53.130;17.982;2024-02-04T04:15:38;100693.95;;;4.70;76.59
77013;BME280;67260;53.130;17.982;2024-02-04T04:18:05;100695.65;;;4.70;76.70
77013;BME280;67260;53.130;17.982;2024-02-04T04:20:36;100695.98;;;4.72;76.58
77013;BME280;67260;53.130;17.982;2024-02-04T04:23:15;100694.55;;;4.76;76.53
77013;BME280;67260;53.130;17.982;2024-02-04T04:25:42;100695.04;;;4.79;76.50
77013;BME280;67260;53.130;17.982;2024-02-04T04:28:35;100692.52;;;4.81;76.44
77013;BME280;67260;53.130;17.982;2024-02-04T04:31:02;100691.86;;;4.84;76.53
77013;BME280;67260;53.130;17.982;2024-02-04T04:37:09;100687.67;;;4.87;76.76
77013;BME280;67260;53.130;17.982;2024-02-04T04:39:42;100688.02;;;4.88;76.90
77013;BME280;67260;53.130;17.982;2024-02-04T04:42:09;100684.08;;;4.89;76.82
77013;BME280;67260;53.130;17.982;2024-02-04T04:44:39;100688.02;;;4.92;76.79
77013;BME280;67260;53.130;17.982;2024-02-04T04:47:41;100687.31;;;4.95;76.75
77013;BME280;67260;53.130;17.982;2024-02-04T04:50:11;100688.69;;;4.97;76.77
77013;BME280;67260;53.130;17.982;2024-02-04T04:52:57;100682.30;;;4.98;76.65
77013;BME280;67260;53.130;17.982;2024-02-04T04:55:49;100679.89;;;4.99;76.43
77013;BME280;67260;53.130;17.982;2024-02-04T04:58:26;100682.17;;;4.97;76.72
77013;BME280;67260;53.130;17.982;2024-02-04T05:01:13;100685.89;;;4.97;76.69
77013;BME280;67260;53.130;17.982;2024-02-04T05:03:46;100676.61;;;4.97;76.65
77013;BME280;67260;53.130;17.982;2024-02-04T05:06:26;100673.30;;;4.95;76.68
77013;BME280;67260;53.130;17.982;2024-02-04T05:09:19;100671.13;;;4.94;76.65
77013;BME280;67260;53.130;17.982;2024-02-04T05:11:49;100669.03;;;4.92;76.87
77013;BME280;67260;53.130;17.982;2024-02-04T05:14:16;100666.77;;;4.92;76.67
77013;BME280;67260;53.130;17.982;2024-02-04T05:16:48;100661.66;;;4.92;76.74
77013;BME280;67260;53.130;17.982;2024-02-04T05:19:19;100660.52;;;4.91;76.66
77013;BME280;67260;53.130;17.982;2024-02-04T05:22:01;100664.52;;;4.91;76.42
77013;BME280;67260;53.130;17.982;2024-02-04T05:24:28;100655.05;;;4.91;76.41
77013;BME280;67260;53.130;17.982;2024-02-04T05:26:56;100655.35;;;4.90;76.23
77013;BME280;67260;53.130;17.982;2024-02-04T05:29:49;100648.05;;;4.88;76.18
77013;BME280;67260;53.130;17.982;2024-02-04T05:32:16;100652.23;;;4.87;76.06
77013;BME280;67260;53.130;17.982;2024-02-04T05:34:43;100659.65;;;4.85;76.15
77013;BME280;67260;53.130;17.982;2024-02-04T05:37:09;100654.63;;;4.82;76.23
77013;BME280;67260;53.130;17.982;2024-02-04T05:40:09;100645.90;;;4.82;76.03
77013;BME280;67260;53.130;17.982;2024-02-04T05:42:44;100640.19;;;4.82;76.08
77013;BME280;67260;53.130;17.982;2024-02-04T05:45:25;100647.11;;;4.79;75.73
77013;BME280;67260;53.130;17.982;2024-02-04T05:47:54;100643.83;;;4.77;75.66
77013;BME280;67260;53.130;17.982;2024-02-04T05:50:22;100638.79;;;4.77;75.52
77013;BME280;67260;53.130;17.982;2024-02-04T05:52:49;100638.40;;;4.76;75.73
77013;BME280;67260;53.130;17.982;2024-02-04T05:59:09;100645.20;;;4.62;75.65
77013;BME280;67260;53.130;17.982;2024-02-04T06:01:42;100650.98;;;4.57;75.44
77013;BME280;67260;53.130;17.982;2024-02-04T06:04:37;100645.88;;;4.54;75.52
77013;BME280;67260;53.130;17.982;2024-02-04T06:07:15;100641.52;;;4.52;75.81
77013;BME280;67260;53.130;17.982;2024-02-04T06:10:14;100643.09;;;4.52;75.80
77013;BME280;67260;53.130;17.982;2024-02-04T06:12:58;100646.13;;;4.47;75.61
77013;BME280;67260;53.130;17.982;2024-02-04T06:15:38;100641.48;;;4.40;75.62
77013;BME280;67260;53.130;17.982;2024-02-04T06:18:06;100635.11;;;4.36;75.64
77013;BME280;67260;53.130;17.982;2024-02-04T06:20:36;100635.55;;;4.32;75.63
77013;BME280;67260;53.130;17.982;2024-02-04T06:23:03;100640.06;;;4.27;75.93
77013;BME280;67260;53.130;17.982;2024-02-04T06:25:35;100642.77;;;4.22;75.86
77013;BME280;67260;53.130;17.982;2024-02-04T06:28:03;100645.05;;;4.17;76.25
77013;BME280;67260;53.130;17.982;2024-02-04T06:31:12;100648.73;;;4.14;76.05
77013;BME280;67260;53.130;17.982;2024-02-04T06:33:55;100643.96;;;4.13;76.25
77013;BME280;67260;53.130;17.982;2024-02-04T06:39:36;100644.36;;;4.17;76.42
77013;BME280;67260;53.130;17.982;2024-02-04T06:42:14;100651.09;;;4.21;76.48
77013;BME280;67260;53.130;17.982;2024-02-04T06:44:57;100647.34;;;4.26;76.48
77013;BME280;67260;53.130;17.982;2024-02-04T06:47:32;100645.96;;;4.33;76.20
77013;BME280;67260;53.130;17.982;2024-02-04T06:50:28;100645.16;;;4.40;76.00
77013;BME280;67260;53.130;17.982;2024-02-04T06:52:58;100643.36;;;4.50;75.78
77013;BME280;67260;53.130;17.982;2024-02-04T06:55:58;100641.13;;;4.60;75.78
77013;BME280;67260;53.130;17.982;2024-02-04T06:58:25;100646.29;;;4.69;75.48
77013;BME280;67260;53.130;17.982;2024-02-04T07:00:55;100644.91;;;4.75;75.46
77013;BME280;67260;53.130;17.982;2024-02-04T07:03:22;100639.11;;;4.78;75.33
77013;BME280;67260;53.130;17.982;2024-02-04T07:05:52;100637.75;;;4.81;75.31
77013;BME280;67260;53.130;17.982;2024-02-04T07:08:19;100642.29;;;4.85;74.89
77013;BME280;67260;53.130;17.982;2024-02-04T07:10:49;100643.69;;;4.88;74.85
77013;BME280;67260;53.130;17.982;2024-02-04T07:13:17;100640.00;;;4.93;74.93
77013;BME280;67260;53.130;17.982;2024-02-04T07:16:01;100636.85;;;4.99;74.49
77013;BME280;67260;53.130;17.982;2024-02-04T07:21:28;100637.17;;;5.13;74.38
77013;BME280;67260;53.130;17.982;2024-02-04T07:47:49;100601.34;;;6.26;72.00
77013;BME280;67260;53.130;17.982;2024-02-04T07:50:41;100602.48;;;6.32;71.73
77013;BME280;67260;53.130;17.982;2024-02-04T07:53:14;100588.56;;;6.48;71.91
77013;BME280;67260;53.130;17.982;2024-02-04T08:01:59;100597.41;;;6.97;69.09
77013;BME280;67260;53.130;17.982;2024-02-04T08:04:26;100597.28;;;6.95;70.36
77013;BME280;67260;53.130;17.982;2024-02-04T08:06:53;100606.04;;;6.94;70.22
77013;BME280;67260;53.130;17.982;2024-02-04T08:09:20;100603.36;;;6.84;70.11
77013;BME280;67260;53.130;17.982;2024-02-04T08:11:51;100606.69;;;6.74;70.82
77013;BME280;67260;53.130;17.982;2024-02-04T08:14:22;100607.39;;;6.59;70.70
77013;BME280;67260;53.130;17.982;2024-02-04T08:16:55;100607.06;;;6.49;71.10
77013;BME280;67260;53.130;17.982;2024-02-04T08:19:28;100605.98;;;6.42;71.26
77013;BME280;67260;53.130;17.982;2024-02-04T08:21:57;100595.96;;;6.33;71.25
77013;BME280;67260;53.130;17.982;2024-02-04T08:24:26;100594.99;;;6.25;71.70
77013;BME280;67260;53.130;17.982;2024-02-04T08:42:49;100592.34;;;5.97;73.21
77013;BME280;67260;53.130;17.982;2024-02-04T08:45:38;100585.55;;;5.96;73.41
77013;BME280;67260;53.130;17.982;2024-02-04T08:48:08;100586.55;;;5.98;73.31
77013;BME280;67260;53.130;17.982;2024-02-04T08:57:37;100574.16;;;6.05;73.27
77013;BME280;67260;53.130;17.982;2024-02-04T09:00:05;100575.86;;;6.07;73.27
77013;BME280;67260;53.130;17.982;2024-02-04T09:02:44;100577.67;;;6.06;73.30
77013;BME280;67260;53.130;17.982;2024-02-04T09:05:24;100578.88;;;6.05;73.37
77013;BME280;67260;53.130;17.982;2024-02-04T09:07:54;100571.81;;;6.07;73.60
77013;BME280;67260;53.130;17.982;2024-02-04T09:13:06;100556.73;;;6.11;73.38
77013;BME280;67260;53.130;17.982;2024-02-04T09:15:35;100547.98;;;6.12;73.37
77013;BME280;67260;53.130;17.982;2024-02-04T09:18:05;100548.40;;;6.16;73.39
77013;BME280;67260;53.130;17.982;2024-02-04T09:20:32;100551.05;;;6.20;73.46
77013;BME280;67260;53.130;17.982;2024-02-04T09:22:59;100543.08;;;6.30;73.49
77013;BME280;67260;53.130;17.982;2024-02-04T09:25:29;100540.02;;;6.45;73.22
77013;BME280;67260;53.130;17.982;2024-02-04T09:28:17;100542.98;;;6.63;72.80
77013;BME280;67260;53.130;17.982;2024-02-04T09:33:34;100534.03;;;6.74;72.52
77013;BME280;67260;53.130;17.982;2024-02-04T09:36:10;100526.19;;;6.80;72.45
77013;BME280;67260;53.130;17.982;2024-02-04T09:39:12;100523.20;;;6.87;72.49
77013;BME280;67260;53.130;17.982;2024-02-04T09:41:43;100522.92;;;6.91;71.91
77013;BME280;67260;53.130;17.982;2024-02-04T09:44:11;100524.08;;;6.93;72.40
77013;BME280;67260;53.130;17.982;2024-02-04T09:46:38;100521.00;;;6.94;71.82
77013;BME280;67260;53.130;17.982;2024-02-04T09:49:05;100522.09;;;6.92;72.06
77013;BME280;67260;53.130;17.982;2024-02-04T09:51:32;100528.16;;;6.90;71.75
77013;BME280;67260;53.130;17.982;2024-02-04T09:54:04;100527.27;;;6.87;71.68
77013;BME280;67260;53.130;17.982;2024-02-04T09:59:45;100530.23;;;6.76;71.98
77013;BME280;67260;53.130;17.982;2024-02-04T10:02:23;100532.67;;;6.72;72.37
77013;BME280;67260;53.130;17.982;2024-02-04T10:04:50;100532.05;;;6.71;72.35
77013;BME280;67260;53.130;17.982;2024-02-04T10:07:33;100526.70;;;6.69;72.38
77013;BME280;67260;53.130;17.982;2024-02-04T10:10:08;100523.34;;;6.69;72.20
77013;BME280;67260;53.130;17.982;2024-02-04T10:12:44;100519.86;;;6.70;72.20
77013;BME280;67260;53.130;17.982;2024-02-04T10:15:11;100511.64;;;6.73;72.44
77013;BME280;67260;53.130;17.982;2024-02-04T10:18:10;100501.09;;;6.77;71.99
77013;BME280;67260;53.130;17.982;2024-02-04T10:20:52;100496.04;;;6.79;71.84
77013;BME280;67260;53.130;17.982;2024-02-04T10:23:27;100490.45;;;6.89;71.57
77013;BME280;67260;53.130;17.982;2024-02-04T10:26:00;100492.79;;;6.92;71.77
77013;BME280;67260;53.130;17.982;2024-02-04T10:28:53;100491.63;;;6.89;71.77
77013;BME280;67260;53.130;17.982;2024-02-04T10:31:33;100490.02;;;6.87;71.85
77013;BME280;67260;53.130;17.982;2024-02-04T10:34:28;100483.15;;;6.94;72.20
77013;BME280;67260;53.130;17.982;2024-02-04T10:36:59;100473.52;;;6.99;71.73
77013;BME280;67260;53.130;17.982;2024-02-04T10:39:26;100472.20;;;7.01;71.15
77013;BME280;67260;53.130;17.982;2024-02-04T10:42:01;100465.81;;;7.17;71.03
77013;BME280;67260;53.130;17.982;2024-02-04T10:44:35;100461.52;;;7.41;70.76
77013;BME280;67260;53.130;17.982;2024-02-04T10:49:52;100446.77;;;8.01;69.94
77013;BME280;67260;53.130;17.982;2024-02-04T10:56:03;100432.79;;;8.27;68.52
77013;BME280;67260;53.130;17.982;2024-02-04T11:02:07;100415.00;;;8.43;66.56
77013;BME280;67260;53.130;17.982;2024-02-04T11:04:53;100409.63;;;8.47;68.01
77013;BME280;67260;53.130;17.982;2024-02-04T11:07:56;100408.98;;;8.76;67.78
77013;BME280;67260;53.130;17.982;2024-02-04T11:11:28;100401.42;;;9.13;66.57
77013;BME280;67260;53.130;17.982;2024-02-04T11:27:45;100383.70;;;8.90;65.43
77013;BME280;67260;53.130;17.982;2024-02-04T11:30:21;100386.23;;;8.81;65.68
77013;BME280;67260;53.130;17.982;2024-02-04T11:37:18;100382.19;;;8.95;64.25
77013;BME280;67260;53.130;17.982;2024-02-04T11:39:57;100377.58;;;9.04;65.13
77013;BME280;67260;53.130;17.982;2024-02-04T11:42:24;100370.90;;;9.06;64.67
77013;BME280;67260;53.130;17.982;2024-02-04T11:45:09;100367.75;;;8.95;64.56
77013;BME280;67260;53.130;17.982;2024-02-04T11:47:39;100363.81;;;8.86;64.95
77013;BME280;67260;53.130;17.982;2024-02-04T12:08:11;100350.89;;;7.89;65.49
77013;BME280;67260;53.130;17.982;2024-02-04T12:11:22;100353.05;;;7.80;66.30
77013;BME280;67260;53.130;17.982;2024-02-04T12:20:38;100356.33;;;7.52;66.88
77013;BME280;67260;53.130;17.982;2024-02-04T12:23:07;100359.96;;;7.47;66.53
77013;BME280;67260;53.130;17.982;2024-02-04T12:25:37;100361.59;;;7.46;66.68
77013;BME280;67260;53.130;17.982;2024-02-04T12:28:23;100362.13;;;7.40;66.87
77013;BME280;67260;53.130;17.982;2024-02-04T12:31:17;100358.28;;;7.37;67.04
77013;BME280;67260;53.130;17.982;2024-02-04T12:33:58;100358.02;;;7.35;67.39
77013;BME280;67260;53.130;17.982;2024-02-04T12:36:33;100359.08;;;7.34;67.57
77013;BME280;67260;53.130;17.982;2024-02-04T12:39:11;100355.62;;;7.35;67.58
77013;BME280;67260;53.130;17.982;2024-02-04T12:41:55;100352.12;;;7.32;67.08
77013;BME280;67260;53.130;17.982;2024-02-04T12:44:36;100350.63;;;7.29;67.55
77013;BME280;67260;53.130;17.982;2024-02-04T12:47:09;100351.62;;;7.29;67.62
77013;BME280;67260;53.130;17.982;2024-02-04T12:49:40;100341.77;;;7.30;67.45
77013;BME280;67260;53.130;17.982;2024-02-04T13:00:24;100315.84;;;7.25;66.83
77013;BME280;67260;53.130;17.982;2024-02-04T13:03:28;100309.94;;;7.24;67.08
77013;BME280;67260;53.130;17.982;2024-02-04T13:10:25;100301.25;;;7.25;66.91
77013;BME280;67260;53.130;17.982;2024-02-04T13:13:07;100299.51;;;7.25;67.09
77013;BME280;67260;53.130;17.982;2024-02-04T13:15:47;100305.23;;;7.25;67.46
77013;BME280;67260;53.130;17.982;2024-02-04T13:18:56;100304.38;;;7.22;67.39
77013;BME280;67260;53.130;17.982;2024-02-04T13:21:50;100302.75;;;7.17;67.29
77013;BME280;67260;53.130;17.982;2024-02-04T13:24:20;100298.09;;;7.13;67.28
77013;BME280;67260;53.130;17.982;2024-02-04T13:26:48;100297.16;;;7.12;67.35
77013;BME280;67260;53.130;17.982;2024-02-04T13:29:16;100294.70;;;7.15;67.54
77013;BME280;67260;53.130;17.982;2024-02-04T13:32:10;100292.27;;;7.16;67.68
77013;BME280;67260;53.130;17.982;2024-02-04T13:34:37;100289.01;;;7.16;67.32
77013;BME280;67260;53.130;17.982;2024-02-04T13:37:06;100281.98;;;7.16;67.66
77013;BME280;67260;53.130;17.982;2024-02-04T13:39:33;100284.91;;;7.17;67.78
77013;BME280;67260;53.130;17.982;2024-02-04T13:42:11;100283.66;;;7.20;67.76
77013;BME280;67260;53.130;17.982;2024-02-04T13:44:38;100277.05;;;7.21;68.02
77013;BME280;67260;53.130;17.982;2024-02-04T13:47:08;100278.39;;;7.21;67.81
77013;BME280;67260;53.130;17.982;2024-02-04T13:49:49;100268.35;;;7.21;67.43
77013;BME280;67260;53.130;17.982;2024-02-04T13:52:30;100264.05;;;7.22;67.46
77013;BME280;67260;53.130;17.982;2024-02-04T13:55:11;100260.48;;;7.24;67.45
77013;BME280;67260;53.130;17.982;2024-02-04T13:57:38;100257.48;;;7.24;67.55
77013;BME280;67260;53.130;17.982;2024-02-04T14:00:07;100256.88;;;7.25;67.58
77013;BME280;67260;53.130;17.982;2024-02-04T14:02:34;100261.36;;;7.23;67.41
77013;BME280;67260;53.130;17.982;2024-02-04T14:05:01;100254.52;;;7.18;67.59
77013;BME280;67260;53.130;17.982;2024-02-04T14:07:31;100250.96;;;7.14;67.55
77013;BME280;67260;53.130;17.982;2024-02-04T14:10:04;100261.67;;;7.11;67.86
77013;BME280;67260;53.130;17.982;2024-02-04T14:12:31;100258.00;;;7.07;67.94
77013;BME280;67260;53.130;17.982;2024-02-04T14:14:58;100258.31;;;7.04;68.35
77013;BME280;67260;53.130;17.982;2024-02-04T14:17:25;100256.13;;;6.99;68.49
77013;BME280;67260;53.130;17.982;2024-02-04T14:19:57;100251.92;;;6.96;68.86
77013;BME280;67260;53.130;17.982;2024-02-04T14:22:25;100249.33;;;6.91;69.07
77013;BME280;67260;53.130;17.982;2024-02-04T14:24:52;100247.64;;;6.88;69.23
77013;BME280;67260;53.130;17.982;2024-02-04T14:27:21;100245.69;;;6.85;69.45
77013;BME280;67260;53.130;17.982;2024-02-04T14:29:52;100251.11;;;6.83;69.51
77013;BME280;67260;53.130;17.982;2024-02-04T14:32:45;100253.44;;;6.78;69.46
77013;BME280;67260;53.130;17.982;2024-02-04T14:38:41;100250.82;;;6.70;70.26
77013;BME280;67260;53.130;17.982;2024-02-04T14:41:30;100245.64;;;6.67;70.28
77013;BME280;67260;53.130;17.982;2024-02-04T14:44:15;100243.65;;;6.61;70.82
77013;BME280;67260;53.130;17.982;2024-02-04T14:50:45;100239.36;;;6.52;71.23
77013;BME280;67260;53.130;17.982;2024-02-04T14:59:28;100228.08;;;6.41;71.90
77013;BME280;67260;53.130;17.982;2024-02-04T15:09:51;100226.30;;;6.30;72.37
77013;BME280;67260;53.130;17.982;2024-02-04T15:13:04;100224.15;;;6.28;72.25
77013;BME280;67260;53.130;17.982;2024-02-04T15:15:32;100220.41;;;6.27;71.98
77013;BME280;67260;53.130;17.982;2024-02-04T15:17:59;100232.35;;;6.27;72.38
77013;BME280;67260;53.130;17.982;2024-02-04T15:20:27;100226.87;;;6.27;72.31
77013;BME280;67260;53.130;17.982;2024-02-04T15:23:45;100222.94;;;6.27;71.97
77013;BME280;67260;53.130;17.982;2024-02-04T15:27:02;100215.30;;;6.27;72.11
77013;BME280;67260;53.130;17.982;2024-02-04T15:30:25;100213.55;;;6.26;72.10
77013;BME280;67260;53.130;17.982;2024-02-04T15:33:31;100215.51;;;6.27;72.07
77013;BME280;67260;53.130;17.982;2024-02-04T15:36:28;100209.41;;;6.26;71.92
77013;BME280;67260;53.130;17.982;2024-02-04T15:39:11;100209.90;;;6.25;72.07
77013;BME280;67260;53.130;17.982;2024-02-04T15:45:11;100213.14;;;6.24;71.91
77013;BME280;67260;53.130;17.982;2024-02-04T15:47:50;100211.19;;;6.24;72.18
77013;BME280;67260;53.130;17.982;2024-02-04T15:54:21;100206.94;;;6.22;72.42
77013;BME280;67260;53.130;17.982;2024-02-04T16:00:11;100211.02;;;6.20;72.24
77013;BME280;67260;53.130;17.982;2024-02-04T16:02:45;100207.00;;;6.18;72.48
77013;BME280;67260;53.130;17.982;2024-02-04T16:08:32;100210.34;;;6.17;72.35
77013;BME280;67260;53.130;17.982;2024-02-04T16:11:16;100209.52;;;6.15;72.37
77013;BME280;67260;53.130;17.982;2024-02-04T16:13:45;100209.86;;;6.16;72.46
77013;BME280;67260;53.130;17.982;2024-02-04T16:16:22;100206.89;;;6.17;72.59
77013;BME280;67260;53.130;17.982;2024-02-04T16:19:32;100203.33;;;6.17;72.42
77013;BME280;67260;53.130;17.982;2024-02-04T16:22:01;100193.67;;;6.18;72.18
77013;BME280;67260;53.130;17.982;2024-02-04T16:25:23;100190.78;;;6.20;71.86
77013;BME280;67260;53.130;17.982;2024-02-04T16:28:37;100187.39;;;6.22;72.06
77013;BME280;67260;53.130;17.982;2024-02-04T16:31:18;100180.28;;;6.23;72.11
77013;BME280;67260;53.130;17.982;2024-02-04T16:37:19;100185.10;;;6.24;71.99
77013;BME280;67260;53.130;17.982;2024-02-04T16:40:13;100183.77;;;6.26;71.79
77013;BME280;67260;53.130;17.982;2024-02-04T16:42:57;100183.86;;;6.26;71.67
77013;BME280;67260;53.130;17.982;2024-02-04T16:45:53;100180.86;;;6.28;71.58